sensor_id;sensor_type;location;lat;lon;timestamp;pressure;altitude;pressure_sealevel;temperature;humidity
40788;BME280;26497;52.494;7.546;2024-03-23T00:53:29;100272.31;;;12.48;67.89
40788;BME280;26497;52.494;7.546;2024-03-23T00:55:56;100258.22;;;12.46;67.87
40788;BME280;26497;52.494;7.546;2024-03-23T00:58:22;100252.94;;;12.46;67.72
40788;BME280;26497;52.494;7.546;2024-03-23T01:00:49;100254.75;;;12.44;67.84
40788;BME280;26497;52.494;7.546;2024-03-23T01:03:15;100246.75;;;12.49;67.58
40788;BME280;26497;52.494;7.546;2024-03-23T01:05:42;100247.69;;;12.43;67.74
40788;BME280;26497;52.494;7.546;2024-03-23T01:08:08;100253.03;;;12.42;67.56
40788;BME280;26497;52.494;7.546;2024-03-23T01:10:36;100246.00;;;12.39;67.64
40788;BME280;26497;52.494;7.546;2024-03-23T01:13:02;100247.81;;;12.35;67.52
40788;BME280;26497;52.494;7.546;2024-03-23T01:15:29;100243.47;;;12.31;67.51
40788;BME280;26497;52.494;7.546;2024-03-23T01:17:55;100231.25;;;12.24;67.90
40788;BME280;26497;52.494;7.546;2024-03-23T01:20:22;100235.63;;;12.23;67.84
40788;BME280;26497;52.494;7.546;2024-03-23T01:22:48;100232.09;;;12.26;67.74
40788;BME280;26497;52.494;7.546;2024-03-23T01:25:15;100244.38;;;12.30;67.64
40788;BME280;26497;52.494;7.546;2024-03-23T01:27:42;100246.13;;;12.30;67.63
40788;BME280;26497;52.494;7.546;2024-03-23T01:30:09;100248.75;;;12.31;67.59
40788;BME280;26497;52.494;7.546;2024-03-23T01:32:35;100245.22;;;12.32;67.52
40788;BME280;26497;52.494;7.546;2024-03-23T01:35:02;100239.09;;;12.29;67.59
40788;BME280;26497;52.494;7.546;2024-03-23T01:37:29;100239.94;;;12.31;67.57
40788;BME280;26497;52.494;7.546;2024-03-23T01:39:56;100231.16;;;12.29;67.74
40788;BME280;26497;52.494;7.546;2024-03-23T01:42:22;100221.50;;;12.26;67.67
40788;BME280;26497;52.494;7.546;2024-03-23T01:44:50;100222.41;;;12.25;67.90
40788;BME280;26497;52.494;7.546;2024-03-23T01:47:16;100225.00;;;12.28;67.90
40788;BME280;26497;52.494;7.546;2024-03-23T01:49:43;100217.97;;;12.27;67.95
40788;BME280;26497;52.494;7.546;2024-03-23T01:52:09;100207.41;;;12.27;67.94
40788;BME280;26497;52.494;7.546;2024-03-23T01:54:36;100215.28;;;12.29;67.81
40788;BME280;26497;52.494;7.546;2024-03-23T01:57:02;100215.28;;;12.29;68.15
40788;BME280;26497;52.494;7.546;2024-03-23T01:59:29;100217.00;;;12.34;67.80
40788;BME280;26497;52.494;7.546;2024-03-23T02:01:57;100213.44;;;12.35;67.73
40788;BME280;26497;52.494;7.546;2024-03-23T02:04:24;100206.38;;;12.37;67.61
40788;BME280;26497;52.494;7.546;2024-03-23T02:06:50;100199.34;;;12.35;67.63
40788;BME280;26497;52.494;7.546;2024-03-23T02:09:17;100198.47;;;12.34;67.53
40788;BME280;26497;52.494;7.546;2024-03-23T02:11:42;100203.78;;;12.34;67.65
40788;BME280;26497;52.494;7.546;2024-03-23T02:14:09;100188.00;;;12.28;67.72
40788;BME280;26497;52.494;7.546;2024-03-23T02:16:35;100189.75;;;12.29;67.55
40788;BME280;26497;52.494;7.546;2024-03-23T02:19:03;100188.00;;;12.28;67.67
40788;BME280;26497;52.494;7.546;2024-03-23T02:21:30;100191.53;;;12.26;67.71
40788;BME280;26497;52.494;7.546;2024-03-23T02:24:00;100194.19;;;12.27;67.50
40788;BME280;26497;52.494;7.546;2024-03-23T02:26:26;100189.97;;;12.14;68.11
40788;BME280;26497;52.494;7.546;2024-03-23T02:28:52;100187.28;;;12.17;68.26
40788;BME280;26497;52.494;7.546;2024-03-23T02:31:18;100174.91;;;12.19;68.11
40788;BME280;26497;52.494;7.546;2024-03-23T02:33:45;100179.31;;;12.20;67.97
40788;BME280;26497;52.494;7.546;2024-03-23T02:36:11;100181.88;;;12.24;67.85
40788;BME280;26497;52.494;7.546;2024-03-23T02:38:38;100183.66;;;12.22;67.71
40788;BME280;26497;52.494;7.546;2024-03-23T02:41:05;100176.84;;;12.06;68.16
40788;BME280;26497;52.494;7.546;2024-03-23T02:43:32;100183.78;;;12.15;68.09
40788;BME280;26497;52.494;7.546;2024-03-23T02:45:58;100196.06;;;12.17;67.83
40788;BME280;26497;52.494;7.546;2024-03-23T02:48:26;100189.97;;;12.14;67.70
40788;BME280;26497;52.494;7.546;2024-03-23T02:50:52;100185.63;;;12.09;67.77
40788;BME280;26497;52.494;7.546;2024-03-23T02:53:19;100170.75;;;12.01;68.02
40788;BME280;26497;52.494;7.546;2024-03-23T02:55:45;100163.72;;;12.01;68.06
40788;BME280;26497;52.494;7.546;2024-03-23T02:58:14;100173.34;;;12.04;67.84
40788;BME280;26497;52.494;7.546;2024-03-23T03:00:39;100164.63;;;11.95;68.00
40788;BME280;26497;52.494;7.546;2024-03-23T03:03:07;100153.31;;;11.86;67.96
40788;BME280;26497;52.494;7.546;2024-03-23T03:05:34;100137.47;;;11.86;67.82
40788;BME280;26497;52.494;7.546;2024-03-23T03:08:01;100122.56;;;11.83;67.93
40788;BME280;26497;52.494;7.546;2024-03-23T03:10:27;100118.13;;;11.84;67.44
40788;BME280;26497;52.494;7.546;2024-03-23T03:12:54;100125.28;;;11.75;67.50
40788;BME280;26497;52.494;7.546;2024-03-23T03:15:21;100131.47;;;11.76;67.27
40788;BME280;26497;52.494;7.546;2024-03-23T03:17:48;100122.69;;;11.74;67.01
40788;BME280;26497;52.494;7.546;2024-03-23T03:20:14;100123.63;;;11.70;67.06
40788;BME280;26497;52.494;7.546;2024-03-23T03:22:43;100130.75;;;11.61;66.88
40788;BME280;26497;52.494;7.546;2024-03-23T03:25:09;100123.00;;;11.49;67.04
40788;BME280;26497;52.494;7.546;2024-03-23T03:27:36;100129.13;;;11.49;67.16
40788;BME280;26497;52.494;7.546;2024-03-23T03:30:02;100118.63;;;11.48;67.12
40788;BME280;26497;52.494;7.546;2024-03-23T03:32:33;100117.81;;;11.41;67.38
40788;BME280;26497;52.494;7.546;2024-03-23T03:34:59;100127.38;;;11.48;67.25
40788;BME280;26497;52.494;7.546;2024-03-23T03:37:26;100121.28;;;11.45;67.31
40788;BME280;26497;52.494;7.546;2024-03-23T03:39:52;100125.69;;;11.46;66.94
40788;BME280;26497;52.494;7.546;2024-03-23T03:42:18;100138.91;;;11.43;66.91
40788;BME280;26497;52.494;7.546;2024-03-23T03:44:44;100131.09;;;11.32;67.18
40788;BME280;26497;52.494;7.546;2024-03-23T03:47:11;100137.34;;;11.26;66.96
40788;BME280;26497;52.494;7.546;2024-03-23T03:49:38;100131.28;;;11.19;66.78
40788;BME280;26497;52.494;7.546;2024-03-23T03:52:05;100136.66;;;11.10;67.00
40788;BME280;26497;52.494;7.546;2024-03-23T03:54:32;100124.44;;;11.03;66.77
40788;BME280;26497;52.494;7.546;2024-03-23T03:56:59;100126.25;;;10.98;66.66
40788;BME280;26497;52.494;7.546;2024-03-23T03:59:26;100128.13;;;10.85;66.62
40788;BME280;26497;52.494;7.546;2024-03-23T04:01:53;100124.69;;;10.73;66.52
40788;BME280;26497;52.494;7.546;2024-03-23T04:04:18;100123.03;;;10.63;66.19
40788;BME280;26497;52.494;7.546;2024-03-23T04:06:47;100119.66;;;10.52;65.91
40788;BME280;26497;52.494;7.546;2024-03-23T04:09:13;100117.97;;;10.40;65.80
40788;BME280;26497;52.494;7.546;2024-03-23T04:11:40;100130.34;;;10.28;65.45
40788;BME280;26497;52.494;7.546;2024-03-23T04:14:06;100115.53;;;10.13;65.61
40788;BME280;26497;52.494;7.546;2024-03-23T04:16:34;100107.66;;;10.06;65.42
40788;BME280;26497;52.494;7.546;2024-03-23T04:19:01;100119.13;;;10.00;65.56
40788;BME280;26497;52.494;7.546;2024-03-23T04:21:27;100122.72;;;9.88;65.61
40788;BME280;26497;52.494;7.546;2024-03-23T04:23:55;100109.63;;;9.79;65.57
40788;BME280;26497;52.494;7.546;2024-03-23T04:26:22;100107.03;;;9.69;65.28
40788;BME280;26497;52.494;7.546;2024-03-23T04:28:47;100106.25;;;9.55;65.41
40788;BME280;26497;52.494;7.546;2024-03-23T04:31:14;100100.97;;;9.55;65.10
40788;BME280;26497;52.494;7.546;2024-03-23T04:33:41;100093.94;;;9.57;64.94
40788;BME280;26497;52.494;7.546;2024-03-23T04:36:08;100103.63;;;9.47;64.94
40788;BME280;26497;52.494;7.546;2024-03-23T04:38:34;100094.03;;;9.41;65.15
40788;BME280;26497;52.494;7.546;2024-03-23T04:41:03;100091.41;;;9.34;65.02
40788;BME280;26497;52.494;7.546;2024-03-23T04:43:30;100088.84;;;9.21;64.73
40788;BME280;26497;52.494;7.546;2024-03-23T04:45:57;100093.22;;;9.22;64.95
40788;BME280;26497;52.494;7.546;2024-03-23T04:48:23;100099.34;;;9.26;64.73
40788;BME280;26497;52.494;7.546;2024-03-23T04:50:54;100090.59;;;9.21;64.90
40788;BME280;26497;52.494;7.546;2024-03-23T04:53:23;100089.75;;;9.14;65.32
40788;BME280;26497;52.494;7.546;2024-03-23T04:55:53;100087.13;;;9.14;65.09
40788;BME280;26497;52.494;7.546;2024-03-23T04:58:22;100092.34;;;9.25;64.60
40788;BME280;26497;52.494;7.546;2024-03-23T05:00:53;100092.38;;;9.15;64.87
40788;BME280;26497;52.494;7.546;2024-03-23T05:03:20;100098.50;;;9.19;65.50
40788;BME280;26497;52.494;7.546;2024-03-23T05:05:47;100090.59;;;9.22;65.92
40788;BME280;26497;52.494;7.546;2024-03-23T05:08:13;100091.44;;;9.26;66.13
40788;BME280;26497;52.494;7.546;2024-03-23T05:10:40;100097.59;;;9.28;65.54
40788;BME280;26497;52.494;7.546;2024-03-23T05:13:07;100094.09;;;9.23;65.06
40788;BME280;26497;52.494;7.546;2024-03-23T05:15:35;100096.75;;;9.17;64.82
40788;BME280;26497;52.494;7.546;2024-03-23T05:18:02;100093.28;;;9.10;65.27
40788;BME280;26497;52.494;7.546;2024-03-23T05:20:29;100097.69;;;9.02;65.06
40788;BME280;26497;52.494;7.546;2024-03-23T05:22:55;100090.66;;;8.96;64.95
40788;BME280;26497;52.494;7.546;2024-03-23T05:25:22;100093.31;;;8.97;64.99
40788;BME280;26497;52.494;7.546;2024-03-23T05:27:48;100088.03;;;9.00;65.46
40788;BME280;26497;52.494;7.546;2024-03-23T05:30:15;100091.53;;;9.04;65.65
40788;BME280;26497;52.494;7.546;2024-03-23T05:32:42;100094.16;;;9.09;65.49
40788;BME280;26497;52.494;7.546;2024-03-23T05:35:10;100094.09;;;9.20;65.18
40788;BME280;26497;52.494;7.546;2024-03-23T05:37:36;100092.34;;;9.23;65.54
40788;BME280;26497;52.494;7.546;2024-03-23T05:40:04;100086.25;;;9.15;65.93
40788;BME280;26497;52.494;7.546;2024-03-23T05:42:30;100087.97;;;9.21;66.11
40788;BME280;26497;52.494;7.546;2024-03-23T05:44:57;100090.63;;;9.11;67.09
40788;BME280;26497;52.494;7.546;2024-03-23T05:47:23;100087.06;;;9.25;66.89
40788;BME280;26497;52.494;7.546;2024-03-23T05:49:51;100088.81;;;9.29;66.04
40788;BME280;26497;52.494;7.546;2024-03-23T05:52:17;100089.69;;;9.28;66.47
40788;BME280;26497;52.494;7.546;2024-03-23T05:54:46;100092.31;;;9.31;66.58
40788;BME280;26497;52.494;7.546;2024-03-23T05:57:12;100087.88;;;9.35;66.17
40788;BME280;26497;52.494;7.546;2024-03-23T05:59:39;100094.03;;;9.41;66.33
40788;BME280;26497;52.494;7.546;2024-03-23T06:02:05;100088.72;;;9.51;66.20
40788;BME280;26497;52.494;7.546;2024-03-23T06:04:32;100092.19;;;9.56;66.81
40788;BME280;26497;52.494;7.546;2024-03-23T06:07:00;100093.91;;;9.66;67.42
40788;BME280;26497;52.494;7.546;2024-03-23T06:09:27;100093.81;;;9.82;67.67
40788;BME280;26497;52.494;7.546;2024-03-23T06:11:53;100097.28;;;9.87;68.25
40788;BME280;26497;52.494;7.546;2024-03-23T06:14:20;100096.22;;;10.10;68.97
40788;BME280;26497;52.494;7.546;2024-03-23T06:16:46;100096.06;;;10.33;69.13
40788;BME280;26497;52.494;7.546;2024-03-23T06:19:13;100094.03;;;10.63;69.77
40788;BME280;26497;52.494;7.546;2024-03-23T06:21:43;100087.44;;;11.04;70.50
40788;BME280;26497;52.494;7.546;2024-03-23T06:24:12;100086.22;;;11.32;71.66
40788;BME280;26497;52.494;7.546;2024-03-23T06:26:38;100078.59;;;11.77;71.18
40788;BME280;26497;52.494;7.546;2024-03-23T06:29:05;100082.69;;;11.97;70.83
40788;BME280;26497;52.494;7.546;2024-03-23T06:31:32;100072.91;;;12.05;69.52
40788;BME280;26497;52.494;7.546;2024-03-23T06:33:58;100076.78;;;11.79;68.29
40788;BME280;26497;52.494;7.546;2024-03-23T06:36:25;100082.66;;;11.99;71.37
40788;BME280;26497;52.494;7.546;2024-03-23T06:38:51;100088.97;;;12.46;73.10
40788;BME280;26497;52.494;7.546;2024-03-23T06:41:19;100081.03;;;13.37;73.56
40788;BME280;26497;52.494;7.546;2024-03-23T06:43:45;100071.34;;;13.79;69.90
40788;BME280;26497;52.494;7.546;2024-03-23T06:46:12;100070.13;;;14.30;70.86
40788;BME280;26497;52.494;7.546;2024-03-23T06:48:38;100075.09;;;15.10;69.95
40788;BME280;26497;52.494;7.546;2024-03-23T06:51:05;100076.25;;;15.61;67.00
40788;BME280;26497;52.494;7.546;2024-03-23T06:53:32;100068.34;;;15.88;66.59
40788;BME280;26497;52.494;7.546;2024-03-23T06:55:59;100078.47;;;16.58;66.52
40788;BME280;26497;52.494;7.546;2024-03-23T06:58:28;100078.16;;;16.67;61.97
40788;BME280;26497;52.494;7.546;2024-03-23T07:00:54;100078.66;;;16.78;61.36
40788;BME280;26497;52.494;7.546;2024-03-23T07:03:20;100073.31;;;16.78;62.88
40788;BME280;26497;52.494;7.546;2024-03-23T07:05:47;100075.88;;;17.54;61.01
40788;BME280;26497;52.494;7.546;2024-03-23T07:08:13;100070.19;;;17.64;57.95
40788;BME280;26497;52.494;7.546;2024-03-23T07:10:44;100072.91;;;17.86;57.17
40788;BME280;26497;52.494;7.546;2024-03-23T07:13:10;100065.69;;;17.88;53.85
40788;BME280;26497;52.494;7.546;2024-03-23T07:15:38;100067.81;;;18.02;54.51
40788;BME280;26497;52.494;7.546;2024-03-23T07:18:04;100061.81;;;18.61;55.27
40788;BME280;26497;52.494;7.546;2024-03-23T07:20:31;100055.69;;;18.79;52.86
40788;BME280;26497;52.494;7.546;2024-03-23T07:22:57;100063.03;;;18.74;51.92
40788;BME280;26497;52.494;7.546;2024-03-23T07:25:24;100060.53;;;19.11;51.23
40788;BME280;26497;52.494;7.546;2024-03-23T07:27:53;100051.28;;;19.75;50.77
40788;BME280;26497;52.494;7.546;2024-03-23T07:30:19;100058.81;;;20.23;48.96
40788;BME280;26497;52.494;7.546;2024-03-23T07:32:47;100060.41;;;20.45;46.71
40788;BME280;26497;52.494;7.546;2024-03-23T07:35:13;100054.53;;;19.82;46.31
40788;BME280;26497;52.494;7.546;2024-03-23T07:37:41;100049.72;;;19.52;46.87
40788;BME280;26497;52.494;7.546;2024-03-23T07:40:07;100054.19;;;18.31;46.29
40788;BME280;26497;52.494;7.546;2024-03-23T07:42:35;100053.69;;;17.54;46.53
40788;BME280;26497;52.494;7.546;2024-03-23T07:45:01;100048.03;;;17.16;47.81
40788;BME280;26497;52.494;7.546;2024-03-23T07:47:27;100062.28;;;17.62;48.83
40788;BME280;26497;52.494;7.546;2024-03-23T07:49:55;100071.19;;;17.61;45.89
40788;BME280;26497;52.494;7.546;2024-03-23T07:52:22;100066.88;;;16.33;47.68
40788;BME280;26497;52.494;7.546;2024-03-23T07:54:47;100066.44;;;15.63;48.66
40788;BME280;26497;52.494;7.546;2024-03-23T07:57:14;100063.72;;;14.73;48.65
40788;BME280;26497;52.494;7.546;2024-03-23T07:59:40;100066.22;;;14.09;50.90
40788;BME280;26497;52.494;7.546;2024-03-23T08:02:07;100061.94;;;13.65;51.72
40788;BME280;26497;52.494;7.546;2024-03-23T08:04:33;100061.28;;;13.55;53.48
40788;BME280;26497;52.494;7.546;2024-03-23T08:07:02;100059.88;;;13.78;54.37
40788;BME280;26497;52.494;7.546;2024-03-23T08:09:28;100056.19;;;14.56;54.36
40788;BME280;26497;52.494;7.546;2024-03-23T08:11:54;100053.22;;;15.62;52.54
40788;BME280;26497;52.494;7.546;2024-03-23T08:14:20;100055.72;;;16.49;49.08
40788;BME280;26497;52.494;7.546;2024-03-23T08:16:47;100053.28;;;17.41;47.12
40788;BME280;26497;52.494;7.546;2024-03-23T08:19:15;100042.84;;;18.46;45.77
40788;BME280;26497;52.494;7.546;2024-03-23T08:21:42;100042.25;;;19.59;42.79
40788;BME280;26497;52.494;7.546;2024-03-23T08:24:09;100040.38;;;20.17;39.93
40788;BME280;26497;52.494;7.546;2024-03-23T08:26:36;100037.13;;;20.28;39.06
40788;BME280;26497;52.494;7.546;2024-03-23T08:29:03;100046.66;;;19.98;37.09
40788;BME280;26497;52.494;7.546;2024-03-23T08:31:30;100042.25;;;20.15;37.91
40788;BME280;26497;52.494;7.546;2024-03-23T08:33:56;100036.25;;;19.92;37.93
40788;BME280;26497;52.494;7.546;2024-03-23T08:36:23;100053.53;;;19.47;39.69
40788;BME280;26497;52.494;7.546;2024-03-23T08:38:49;100043.91;;;19.04;39.95
40788;BME280;26497;52.494;7.546;2024-03-23T08:41:20;100047.84;;;19.54;40.46
40788;BME280;26497;52.494;7.546;2024-03-23T08:43:46;100046.31;;;20.75;37.08
40788;BME280;26497;52.494;7.546;2024-03-23T08:46:14;100039.81;;;21.14;36.55
40788;BME280;26497;52.494;7.546;2024-03-23T08:48:42;100050.25;;;21.03;35.78
40788;BME280;26497;52.494;7.546;2024-03-23T08:51:10;100038.72;;;21.50;36.26
40788;BME280;26497;52.494;7.546;2024-03-23T08:53:37;100032.63;;;21.80;35.11
40788;BME280;26497;52.494;7.546;2024-03-23T08:56:04;100035.19;;;22.29;34.73
40788;BME280;26497;52.494;7.546;2024-03-23T08:58:33;100044.34;;;21.94;33.25
40788;BME280;26497;52.494;7.546;2024-03-23T09:01:04;100043.91;;;21.54;34.08
40788;BME280;26497;52.494;7.546;2024-03-23T09:03:30;100052.66;;;20.21;36.75
40788;BME280;26497;52.494;7.546;2024-03-23T09:05:57;100070.22;;;17.86;41.03
40788;BME280;26497;52.494;7.546;2024-03-23T09:08:24;100074.22;;;16.27;43.79
40788;BME280;26497;52.494;7.546;2024-03-23T09:10:51;100083.28;;;15.02;46.51
40788;BME280;26497;52.494;7.546;2024-03-23T09:13:18;100089.66;;;14.27;49.46
40788;BME280;26497;52.494;7.546;2024-03-23T09:15:50;100087.09;;;13.86;50.46
40788;BME280;26497;52.494;7.546;2024-03-23T09:18:16;100085.38;;;13.43;51.66
40788;BME280;26497;52.494;7.546;2024-03-23T09:20:43;100094.03;;;13.07;52.51
40788;BME280;26497;52.494;7.546;2024-03-23T09:23:09;100092.78;;;12.31;56.20
40788;BME280;26497;52.494;7.546;2024-03-23T09:25:36;100098.22;;;12.22;57.12
40788;BME280;26497;52.494;7.546;2024-03-23T09:28:04;100092.56;;;12.44;58.17
40788;BME280;26497;52.494;7.546;2024-03-23T09:30:32;100097.06;;;12.37;58.14
40788;BME280;26497;52.494;7.546;2024-03-23T09:32:59;100099.50;;;11.93;59.12
40788;BME280;26497;52.494;7.546;2024-03-23T09:35:26;100106.41;;;11.38;59.27
40788;BME280;26497;52.494;7.546;2024-03-23T09:37:52;100124.06;;;10.48;61.59
40788;BME280;26497;52.494;7.546;2024-03-23T09:40:19;100122.47;;;10.27;63.27
40788;BME280;26497;52.494;7.546;2024-03-23T09:42:49;100106.47;;;10.52;64.00
40788;BME280;26497;52.494;7.546;2024-03-23T09:45:20;100092.81;;;10.97;64.58
40788;BME280;26497;52.494;7.546;2024-03-23T09:47:46;100089.47;;;12.17;66.55
40788;BME280;26497;52.494;7.546;2024-03-23T09:50:15;100083.56;;;13.01;61.34
40788;BME280;26497;52.494;7.546;2024-03-23T09:52:41;100083.19;;;14.01;58.79
40788;BME280;26497;52.494;7.546;2024-03-23T09:55:08;100078.22;;;14.24;53.33
40788;BME280;26497;52.494;7.546;2024-03-23T09:57:34;100069.75;;;15.12;53.54
40788;BME280;26497;52.494;7.546;2024-03-23T10:00:01;100057.56;;;16.20;50.12
40788;BME280;26497;52.494;7.546;2024-03-23T10:02:27;100044.59;;;17.36;48.88
40788;BME280;26497;52.494;7.546;2024-03-23T10:04:54;100055.69;;;17.25;45.17
40788;BME280;26497;52.494;7.546;2024-03-23T10:07:22;100060.94;;;16.25;44.85
40788;BME280;26497;52.494;7.546;2024-03-23T10:09:48;100062.97;;;15.31;47.84
40788;BME280;26497;52.494;7.546;2024-03-23T10:12:17;100075.09;;;14.79;48.63
40788;BME280;26497;52.494;7.546;2024-03-23T10:14:44;100065.16;;;14.16;50.29
40788;BME280;26497;52.494;7.546;2024-03-23T10:17:16;100071.06;;;13.91;51.11
40788;BME280;26497;52.494;7.546;2024-03-23T10:19:44;100062.69;;;13.72;52.09
40788;BME280;26497;52.494;7.546;2024-03-23T10:22:13;100068.91;;;13.69;53.34
40788;BME280;26497;52.494;7.546;2024-03-23T10:24:42;100068.47;;;13.50;53.47
40788;BME280;26497;52.494;7.546;2024-03-23T10:27:07;100062.91;;;13.61;52.70
40788;BME280;26497;52.494;7.546;2024-03-23T10:29:34;100058.66;;;14.29;54.64
40788;BME280;26497;52.494;7.546;2024-03-23T10:32:10;100054.03;;;15.64;52.76
40788;BME280;26497;52.494;7.546;2024-03-23T10:34:38;100054.41;;;16.61;46.11
40788;BME280;26497;52.494;7.546;2024-03-23T10:37:05;100069.25;;;16.68;46.33
40788;BME280;26497;52.494;7.546;2024-03-23T10:39:32;100062.03;;;15.92;47.32
40788;BME280;26497;52.494;7.546;2024-03-23T10:42:02;100056.13;;;14.58;46.40
40788;BME280;26497;52.494;7.546;2024-03-23T10:44:29;100030.84;;;13.33;46.19
40788;BME280;26497;52.494;7.546;2024-03-23T10:46:57;100039.41;;;13.03;49.90
40788;BME280;26497;52.494;7.546;2024-03-23T10:49:26;100036.59;;;13.11;50.01
40788;BME280;26497;52.494;7.546;2024-03-23T10:51:56;100031.16;;;13.17;50.71
40788;BME280;26497;52.494;7.546;2024-03-23T10:54:24;100033.06;;;13.53;51.17
40788;BME280;26497;52.494;7.546;2024-03-23T10:56:50;100048.94;;;13.54;50.51
40788;BME280;26497;52.494;7.546;2024-03-23T10:59:20;100037.81;;;13.78;49.82
40788;BME280;26497;52.494;7.546;2024-03-23T11:01:56;100035.25;;;14.45;51.21
40788;BME280;26497;52.494;7.546;2024-03-23T11:04:30;100028.75;;;15.51;47.87
40788;BME280;26497;52.494;7.546;2024-03-23T11:06:56;100024.09;;;16.65;48.04
40788;BME280;26497;52.494;7.546;2024-03-23T11:09:39;100025.31;;;17.75;43.85
40788;BME280;26497;52.494;7.546;2024-03-23T11:12:29;100007.81;;;19.14;41.62
40788;BME280;26497;52.494;7.546;2024-03-23T11:15:00;100017.63;;;20.26;39.43
40788;BME280;26497;52.494;7.546;2024-03-23T11:17:26;100011.69;;;20.54;36.25
40788;BME280;26497;52.494;7.546;2024-03-23T11:19:55;100007.28;;;20.00;37.84
40788;BME280;26497;52.494;7.546;2024-03-23T11:22:41;100018.41;;;19.35;38.30
40788;BME280;26497;52.494;7.546;2024-03-23T11:25:13;100020.78;;;18.42;38.85
40788;BME280;26497;52.494;7.546;2024-03-23T11:27:39;100013.75;;;18.19;39.83
40788;BME280;26497;52.494;7.546;2024-03-23T11:30:14;100027.53;;;18.91;40.47
40788;BME280;26497;52.494;7.546;2024-03-23T11:32:41;100006.25;;;18.90;38.38
40788;BME280;26497;52.494;7.546;2024-03-23T11:35:09;100016.25;;;17.57;37.46
40788;BME280;26497;52.494;7.546;2024-03-23T11:37:36;100018.25;;;17.28;40.85
40788;BME280;26497;52.494;7.546;2024-03-23T11:40:19;100020.97;;;16.54;41.12
40788;BME280;26497;52.494;7.546;2024-03-23T11:42:45;100022.16;;;15.91;41.72
40788;BME280;26497;52.494;7.546;2024-03-23T11:45:14;100029.13;;;15.38;43.58
40788;BME280;26497;52.494;7.546;2024-03-23T11:47:41;100027.84;;;15.52;45.45
40788;BME280;26497;52.494;7.546;2024-03-23T11:50:08;100017.88;;;15.58;45.27
40788;BME280;26497;52.494;7.546;2024-03-23T11:52:35;100011.59;;;15.61;44.88
40788;BME280;26497;52.494;7.546;2024-03-23T11:55:06;100013.41;;;15.30;42.55
40788;BME280;26497;52.494;7.546;2024-03-23T11:57:33;100014.19;;;15.34;43.53
40788;BME280;26497;52.494;7.546;2024-03-23T12:00:01;100013.50;;;15.27;43.05
40788;BME280;26497;52.494;7.546;2024-03-23T12:02:28;100013.13;;;15.97;42.01
40788;BME280;26497;52.494;7.546;2024-03-23T12:04:55;100000.47;;;16.81;40.47
40788;BME280;26497;52.494;7.546;2024-03-23T12:07:21;100005.22;;;17.66;36.94
40788;BME280;26497;52.494;7.546;2024-03-23T12:10:02;99993.06;;;18.45;38.11
40788;BME280;26497;52.494;7.546;2024-03-23T12:12:29;99990.44;;;19.42;34.64
40788;BME280;26497;52.494;7.546;2024-03-23T12:15:02;99981.50;;;19.80;34.01
40788;BME280;26497;52.494;7.546;2024-03-23T12:17:30;99985.44;;;19.73;33.30
40788;BME280;26497;52.494;7.546;2024-03-23T12:19:57;99987.16;;;20.11;35.24
40788;BME280;26497;52.494;7.546;2024-03-23T12:22:23;99967.06;;;19.65;35.16
40788;BME280;26497;52.494;7.546;2024-03-23T12:24:51;99978.97;;;19.96;33.40
40788;BME280;26497;52.494;7.546;2024-03-23T12:27:17;99976.97;;;19.82;34.34
40788;BME280;26497;52.494;7.546;2024-03-23T12:29:44;99982.47;;;19.60;35.12
40788;BME280;26497;52.494;7.546;2024-03-23T12:32:12;99975.31;;;17.36;38.44
40788;BME280;26497;52.494;7.546;2024-03-23T12:34:40;99987.25;;;16.78;40.05
40788;BME280;26497;52.494;7.546;2024-03-23T12:37:07;99971.22;;;16.79;40.19
40788;BME280;26497;52.494;7.546;2024-03-23T12:39:34;99955.53;;;16.95;39.32
40788;BME280;26497;52.494;7.546;2024-03-23T12:42:01;99969.75;;;17.42;39.35
40788;BME280;26497;52.494;7.546;2024-03-23T12:44:28;99945.91;;;18.25;38.80
40788;BME280;26497;52.494;7.546;2024-03-23T12:46:54;99972.06;;;19.17;36.55
40788;BME280;26497;52.494;7.546;2024-03-23T12:49:21;99973.13;;;19.51;33.85
40788;BME280;26497;52.494;7.546;2024-03-23T12:51:54;99974.41;;;19.42;34.51
40788;BME280;26497;52.494;7.546;2024-03-23T12:54:21;99980.84;;;19.38;34.56
40788;BME280;26497;52.494;7.546;2024-03-23T12:56:47;99966.84;;;20.07;35.02
40788;BME280;26497;52.494;7.546;2024-03-23T12:59:14;99967.59;;;21.11;33.15
40788;BME280;26497;52.494;7.546;2024-03-23T13:01:40;99958.50;;;21.62;30.47
40788;BME280;26497;52.494;7.546;2024-03-23T13:04:07;99948.09;;;22.33;30.34
40788;BME280;26497;52.494;7.546;2024-03-23T13:06:33;99951.09;;;21.35;29.28
40788;BME280;26497;52.494;7.546;2024-03-23T13:09:02;99939.03;;;20.60;33.45
40788;BME280;26497;52.494;7.546;2024-03-23T13:11:28;99956.22;;;19.32;33.18
40788;BME280;26497;52.494;7.546;2024-03-23T13:13:55;99947.97;;;18.39;34.54
40788;BME280;26497;52.494;7.546;2024-03-23T13:16:21;99990.94;;;17.23;35.29
40788;BME280;26497;52.494;7.546;2024-03-23T13:18:48;100030.88;;;16.23;39.80
40788;BME280;26497;52.494;7.546;2024-03-23T13:21:14;100006.16;;;15.36;43.26
40788;BME280;26497;52.494;7.546;2024-03-23T13:23:42;100017.34;;;14.54;45.31
40788;BME280;26497;52.494;7.546;2024-03-23T13:26:10;100024.47;;;13.43;44.38
40788;BME280;26497;52.494;7.546;2024-03-23T13:28:37;100031.63;;;12.95;44.84
40788;BME280;26497;52.494;7.546;2024-03-23T13:31:03;100018.81;;;12.74;46.41
40788;BME280;26497;52.494;7.546;2024-03-23T13:33:30;100014.13;;;12.88;46.75
40788;BME280;26497;52.494;7.546;2024-03-23T13:35:57;100011.84;;;13.13;46.52
40788;BME280;26497;52.494;7.546;2024-03-23T13:38:25;100020.13;;;13.78;46.07
40788;BME280;26497;52.494;7.546;2024-03-23T13:40:55;100009.44;;;14.52;44.57
40788;BME280;26497;52.494;7.546;2024-03-23T13:43:24;100009.13;;;14.96;43.20
40788;BME280;26497;52.494;7.546;2024-03-23T13:45:53;100002.34;;;14.86;41.19